Time;durP1;ratioP1;P1;durP2;ratioP2;P2;SDS_P1;SDS_P2;PMS_P1;PMS_P2;Temp;Humidity;BMP_temperature;BMP_pressure;BME280_temperature;BME280_humidity;BME280_pressure;Samples;Min_cycle;Max_cycle;Signal;HPM_P1;HPM_P2
2023/09/25 00:01:58;;;;;;;1.90;1.50;;;19.40;66.70;;;;;;5134241;27;20176;-63
2023/09/25 00:04:25;;;;;;;1.30;1.20;;;19.30;66.60;;;;;;5133907;27;20164;-63
2023/09/25 00:06:51;;;;;;;1.90;1.73;;;19.40;66.70;;;;;;5133507;27;20215;-63
2023/09/25 00:09:17;;;;;;;1.30;1.20;;;19.40;66.70;;;;;;5133779;27;20192;-62
2023/09/25 00:11:42;;;;;;;1.67;1.58;;;19.40;66.70;;;;;;5133946;27;20638;-62
2023/09/25 00:14:08;;;;;;;1.50;1.40;;;19.40;66.60;;;;;;5133214;27;20192;-63
2023/09/25 00:16:34;;;;;;;1.75;1.60;;;19.40;66.70;;;;;;5134084;27;20696;-62
2023/09/25 00:18:59;;;;;;;1.50;1.30;;;19.40;67.20;;;;;;5133275;27;20259;-63
2023/09/25 00:21:25;;;;;;;2.60;1.55;;;19.40;66.70;;;;;;5133422;27;20664;-63
2023/09/25 00:23:51;;;;;;;1.45;1.35;;;19.40;66.70;;;;;;5133798;27;20166;-63
2023/09/25 00:26:16;;;;;;;2.65;1.50;;;19.40;66.70;;;;;;5132633;27;20212;-63
2023/09/25 00:28:42;;;;;;;1.85;1.33;;;19.30;66.70;;;;;;5133761;27;20665;-62
2023/09/25 00:31:09;;;;;;;1.83;1.63;;;19.40;66.70;;;;;;5133423;27;20538;-63
2023/09/25 00:33:35;;;;;;;1.50;1.40;;;19.30;66.70;;;;;;5132901;27;20169;-62
2023/09/25 00:36:00;;;;;;;1.80;1.60;;;19.40;66.70;;;;;;5133538;27;20187;-63
2023/09/25 00:38:26;;;;;;;1.10;1.00;;;19.30;66.70;;;;;;5133640;27;20168;-63
2023/09/25 00:40:52;;;;;;;1.85;1.50;;;19.30;66.70;;;;;;5132919;27;20184;-62
2023/09/25 00:43:17;;;;;;;1.50;1.40;;;19.30;66.70;;;;;;5133308;27;20267;-62
2023/09/25 00:45:44;;;;;;;1.67;1.20;;;19.30;66.70;;;;;;5133517;28;20223;-62
2023/09/25 00:48:29;;;;;;;1.52;1.13;;;19.30;66.80;;;;;;5132691;28;20168;-62
2023/09/25 00:50:59;;;;;;;1.40;1.30;;;19.30;66.70;;;;;;5118029;28;20217;-62
2023/09/25 00:53:25;;;;;;;1.45;1.35;;;19.30;66.70;;;;;;5133613;28;20168;-62
2023/09/25 00:55:50;;;;;;;1.30;1.20;;;19.30;67.60;;;;;;5114827;28;20183;-62
2023/09/25 00:58:16;;;;;;;1.80;1.20;;;19.30;66.60;;;;;;5133245;28;20176;-62
2023/09/25 01:00:42;;;;;;;1.70;1.42;;;19.30;67.50;;;;;;5098403;28;20507;-62
2023/09/25 01:03:08;;;;;;;1.42;1.33;;;19.30;66.60;;;;;;5114205;28;20200;-63
2023/09/25 01:05:35;;;;;;;1.35;1.25;;;19.30;67.50;;;;;;5133334;28;20284;-63
2023/09/25 01:08:02;;;;;;;1.52;1.42;;;19.30;66.60;;;;;;5114923;28;20192;-63
2023/09/25 01:10:27;;;;;;;1.50;1.40;;;19.30;66.60;;;;;;5132752;28;20172;-62
2023/09/25 01:12:53;;;;;;;1.35;1.20;;;19.30;66.60;;;;;;5133500;28;20547;-62
2023/09/25 01:15:19;;;;;;;1.40;1.30;;;19.30;66.60;;;;;;5132315;28;20160;-63
2023/09/25 01:17:47;;;;;;;2.17;1.20;;;19.30;66.60;;;;;;5133358;28;20176;-62
2023/09/25 01:20:14;;;;;;;1.48;1.13;;;19.30;67.40;;;;;;5132923;28;20183;-63
2023/09/25 01:22:40;;;;;;;1.40;1.20;;;19.20;66.50;;;;;;5132695;28;20252;-62
2023/09/25 01:25:06;;;;;;;1.73;1.48;;;19.20;66.40;;;;;;5133077;28;20172;-64
2023/09/25 01:27:32;;;;;;;1.77;1.50;;;19.20;66.50;;;;;;5133244;28;20630;-62
2023/09/25 01:29:57;;;;;;;1.50;1.27;;;19.20;66.50;;;;;;5132630;28;20175;-62
2023/09/25 01:32:23;;;;;;;1.27;1.17;;;19.20;66.50;;;;;;5134270;27;20240;-62
2023/09/25 01:34:49;;;;;;;1.25;1.10;;;19.20;66.40;;;;;;5137116;27;20192;-62
2023/09/25 01:37:15;;;;;;;1.55;1.30;;;19.20;66.40;;;;;;5136234;27;20180;-63
2023/09/25 01:39:40;;;;;;;1.30;1.20;;;19.20;66.50;;;;;;5136961;27;20175;-62
2023/09/25 01:42:06;;;;;;;1.40;1.30;;;19.20;66.40;;;;;;5136685;27;20172;-63
2023/09/25 01:44:31;;;;;;;1.20;1.10;;;19.20;66.40;;;;;;5136207;27;20191;-62
2023/09/25 01:46:57;;;;;;;1.45;1.13;;;19.20;66.40;;;;;;5136743;27;20595;-62
2023/09/25 01:49:23;;;;;;;1.95;1.13;;;19.20;66.50;;;;;;5136654;27;20543;-62
2023/09/25 01:51:49;;;;;;;2.33;1.48;;;19.20;66.40;;;;;;5136279;27;20176;-62
2023/09/25 01:54:14;;;;;;;1.33;1.23;;;19.20;66.40;;;;;;5136582;27;20161;-62
2023/09/25 01:56:40;;;;;;;1.20;1.10;;;19.20;66.30;;;;;;5136516;27;20183;-62
2023/09/25 01:59:05;;;;;;;1.45;1.35;;;19.20;66.40;;;;;;5135900;27;20165;-62
2023/09/25 02:01:31;;;;;;;1.35;1.25;;;19.20;66.40;;;;;;5136519;27;20199;-62
2023/09/25 02:03:56;;;;;;;1.40;1.30;;;19.20;66.30;;;;;;5136454;27;20190;-63
2023/09/25 02:06:22;;;;;;;1.40;1.30;;;19.20;66.40;;;;;;5135283;27;20835;-62
2023/09/25 02:08:47;;;;;;;1.23;1.13;;;19.10;66.30;;;;;;5136615;27;20171;-62
2023/09/25 02:11:13;;;;;;;1.75;1.50;;;19.10;66.20;;;;;;5136130;27;20682;-63
2023/09/25 02:13:39;;;;;;;1.40;1.17;;;19.20;66.30;;;;;;5135527;27;20641;-63
2023/09/25 02:16:04;;;;;;;2.70;1.65;;;19.10;66.30;;;;;;5135945;27;20264;-63
2023/09/25 02:18:30;;;;;;;1.75;1.25;;;19.10;66.30;;;;;;5135537;27;20177;-63
2023/09/25 02:20:55;;;;;;;1.30;1.20;;;19.20;66.40;;;;;;5136258;27;20177;-63
2023/09/25 02:23:21;;;;;;;1.45;1.35;;;19.10;66.30;;;;;;5135938;27;20173;-63
2023/09/25 02:25:46;;;;;;;1.58;1.30;;;19.10;66.30;;;;;;5135469;27;20200;-63
2023/09/25 02:28:12;;;;;;;1.30;1.20;;;19.10;66.30;;;;;;5135783;27;20168;-63
2023/09/25 02:30:37;;;;;;;1.45;1.20;;;19.10;66.20;;;;;;5135890;27;20173;-63
2023/09/25 02:33:03;;;;;;;3.10;1.38;;;19.10;66.30;;;;;;5134838;27;20173;-62
2023/09/25 02:35:29;;;;;;;1.50;1.40;;;19.10;66.20;;;;;;5136284;27;20180;-62
2023/09/25 02:37:54;;;;;;;1.25;1.10;;;19.10;66.30;;;;;;5136179;27;20164;-63
2023/09/25 02:40:20;;;;;;;1.52;1.42;;;19.10;66.20;;;;;;5134621;27;20172;-63
2023/09/25 02:42:46;;;;;;;2.28;1.20;;;19.10;66.20;;;;;;5135842;27;20173;-63
2023/09/25 02:45:11;;;;;;;1.55;1.45;;;19.10;66.20;;;;;;5135295;27;20230;-63
2023/09/25 02:47:37;;;;;;;1.35;1.25;;;19.10;66.20;;;;;;5134974;27;20184;-62
2023/09/25 02:50:02;;;;;;;1.40;1.25;;;19.10;66.30;;;;;;5135337;27;20182;-63
2023/09/25 02:52:28;;;;;;;1.55;1.45;;;19.00;66.10;;;;;;5135724;27;20172;-62
2023/09/25 02:54:54;;;;;;;1.50;1.40;;;19.10;66.20;;;;;;5134933;27;20196;-62
2023/09/25 02:57:19;;;;;;;1.48;1.38;;;19.10;66.20;;;;;;5135188;27;20251;-62
2023/09/25 02:59:45;;;;;;;1.33;1.23;;;19.10;66.20;;;;;;5135536;27;20168;-63
2023/09/25 03:02:10;;;;;;;1.38;1.27;;;19.10;66.30;;;;;;5134411;27;20228;-63
2023/09/25 03:04:37;;;;;;;1.52;1.42;;;19.10;66.20;;;;;;5135214;27;20164;-63
2023/09/25 03:07:03;;;;;;;1.70;1.42;;;19.10;66.30;;;;;;5135133;27;20208;-65
2023/09/25 03:09:28;;;;;;;1.58;1.38;;;19.00;66.10;;;;;;5134410;27;20172;-63
2023/09/25 03:11:54;;;;;;;1.38;1.27;;;19.00;66.10;;;;;;5135185;27;20617;-63
2023/09/25 03:14:19;;;;;;;1.75;1.50;;;19.10;66.30;;;;;;5134697;27;20301;-63
2023/09/25 03:16:45;;;;;;;1.65;1.42;;;19.00;66.20;;;;;;5134304;27;20172;-63
2023/09/25 03:19:11;;;;;;;1.55;1.30;;;19.00;66.10;;;;;;5134701;27;20180;-64
2023/09/25 03:21:37;;;;;;;1.70;1.40;;;19.00;66.20;;;;;;5135112;27;20647;-63
2023/09/25 03:24:02;;;;;;;1.73;1.30;;;19.00;66.10;;;;;;5134047;27;20169;-64
2023/09/25 03:26:28;;;;;;;1.60;1.35;;;19.00;66.10;;;;;;5134881;27;20215;-63
2023/09/25 03:28:53;;;;;;;2.10;1.55;;;19.00;66.10;;;;;;5116916;27;20679;-63
2023/09/25 03:31:19;;;;;;;1.90;1.50;;;19.00;66.10;;;;;;5113856;28;20177;-62
2023/09/25 03:33:45;;;;;;;2.85;1.45;;;19.00;66.10;;;;;;5114188;28;20192;-62
2023/09/25 03:36:11;;;;;;;1.17;1.08;;;19.00;66.10;;;;;;5113070;28;20187;-63
2023/09/25 03:38:37;;;;;;;2.22;1.65;;;19.00;66.10;;;;;;5114292;28;20170;-63
2023/09/25 03:41:02;;;;;;;1.85;1.60;;;19.00;66.10;;;;;;5113657;28;20294;-63
2023/09/25 03:43:28;;;;;;;1.60;1.30;;;19.00;66.10;;;;;;5113211;28;20169;-62
2023/09/25 03:45:53;;;;;;;1.50;1.40;;;19.00;66.10;;;;;;5113628;28;20225;-62
2023/09/25 03:48:19;;;;;;;1.70;1.40;;;19.00;66.20;;;;;;5095436;28;20173;-62
2023/09/25 03:50:44;;;;;;;2.17;1.70;;;19.00;66.20;;;;;;5113358;28;20165;-61
2023/09/25 03:53:11;;;;;;;2.17;1.75;;;19.00;66.10;;;;;;5113811;28;20173;-63
2023/09/25 03:55:40;;;;;;;1.65;1.55;;;18.90;66.10;;;;;;5113432;28;20301;-62
2023/09/25 03:58:06;;;;;;;2.05;1.48;;;19.00;66.10;;;;;;5112662;28;20173;-62
2023/09/25 04:00:32;;;;;;;1.77;1.60;;;18.90;66.10;;;;;;5113724;28;20185;-62
2023/09/25 04:02:57;;;;;;;1.55;1.40;;;18.90;66.50;;;;;;5113856;28;20305;-63
2023/09/25 04:05:23;;;;;;;1.60;1.50;;;18.90;66.20;;;;;;5112830;28;20217;-63
2023/09/25 04:07:49;;;;;;;1.80;1.70;;;18.90;66.10;;;;;;5113752;28;20164;-63
2023/09/25 04:10:14;;;;;;;1.98;1.75;;;19.00;66.10;;;;;;5113130;28;20197;-63
2023/09/25 04:12:40;;;;;;;1.60;1.50;;;18.90;66.10;;;;;;5112856;28;20177;-63
2023/09/25 04:15:08;;;;;;;1.42;1.33;;;18.90;66.00;;;;;;5113139;28;20264;-63
2023/09/25 04:17:34;;;;;;;1.85;1.42;;;18.90;66.10;;;;;;5113327;28;20184;-63
2023/09/25 04:19:59;;;;;;;1.88;1.60;;;18.90;66.20;;;;;;5112799;28;20181;-63
2023/09/25 04:22:25;;;;;;;2.42;1.70;;;18.90;66.10;;;;;;5113187;28;20198;-65
2023/09/25 04:24:52;;;;;;;2.58;1.60;;;18.90;66.00;;;;;;5113450;28;20187;-64
2023/09/25 04:27:18;;;;;;;1.60;1.50;;;18.90;66.10;;;;;;5112333;28;20635;-63
2023/09/25 04:29:43;;;;;;;1.70;1.50;;;18.90;66.20;;;;;;5113340;28;20593;-63
2023/09/25 04:32:09;;;;;;;2.22;1.33;;;18.90;66.20;;;;;;5112176;28;20180;-63
2023/09/25 04:34:35;;;;;;;1.58;1.27;;;18.90;66.10;;;;;;5113317;28;20173;-62
2023/09/25 04:37:02;;;;;;;2.10;1.35;;;18.90;66.10;;;;;;5113136;28;20211;-63
2023/09/25 04:39:28;;;;;;;1.92;1.77;;;18.90;66.10;;;;;;5112639;28;20172;-63
2023/09/25 04:41:53;;;;;;;1.65;1.55;;;18.90;66.20;;;;;;5113211;28;20177;-63
2023/09/25 04:44:19;;;;;;;3.30;1.88;;;18.90;66.20;;;;;;5112683;28;20169;-63
2023/09/25 04:46:45;;;;;;;2.60;1.88;;;18.90;66.20;;;;;;5112309;28;20228;-62
2023/09/25 04:49:12;;;;;;;1.88;1.67;;;18.90;66.20;;;;;;5113099;28;20165;-63
2023/09/25 04:51:38;;;;;;;1.88;1.70;;;18.90;66.20;;;;;;5113095;28;20180;-63
2023/09/25 04:54:05;;;;;;;1.73;1.63;;;18.90;66.20;;;;;;5112087;28;20186;-63
2023/09/25 04:56:31;;;;;;;1.80;1.70;;;18.90;66.30;;;;;;5112823;28;20184;-62
2023/09/25 04:58:57;;;;;;;2.17;1.60;;;18.90;66.20;;;;;;5112959;28;20216;-62
2023/09/25 05:01:23;;;;;;;1.88;1.70;;;18.90;66.30;;;;;;5111975;28;20662;-63
2023/09/25 05:03:49;;;;;;;1.63;1.50;;;18.90;66.30;;;;;;5112876;28;20567;-63
2023/09/25 05:06:15;;;;;;;2.13;1.75;;;18.90;66.30;;;;;;5112649;28;20250;-63
2023/09/25 05:08:41;;;;;;;1.70;1.60;;;18.80;66.20;;;;;;5115806;28;20248;-62
2023/09/25 05:11:06;;;;;;;2.28;1.77;;;18.80;66.20;;;;;;5116718;28;20519;-63
2023/09/25 05:13:33;;;;;;;2.35;1.55;;;18.80;66.20;;;;;;5116845;28;20623;-63
2023/09/25 05:16:00;;;;;;;1.45;1.33;;;18.80;66.20;;;;;;5115957;28;20627;-63
2023/09/25 05:18:25;;;;;;;1.65;1.55;;;18.80;66.20;;;;;;5116926;28;20211;-63
2023/09/25 05:20:51;;;;;;;1.83;1.58;;;18.80;66.20;;;;;;5116982;28;20200;-63
2023/09/25 05:23:18;;;;;;;1.88;1.73;;;18.80;66.20;;;;;;5115739;28;20558;-63
2023/09/25 05:25:44;;;;;;;2.22;1.60;;;18.80;66.10;;;;;;5116610;28;20280;-63
2023/09/25 05:28:10;;;;;;;2.17;1.50;;;18.80;66.20;;;;;;5116314;28;20203;-63
2023/09/25 05:30:35;;;;;;;2.05;1.92;;;18.70;66.20;;;;;;5116049;28;20173;-62
2023/09/25 05:33:01;;;;;;;3.10;1.75;;;18.80;66.20;;;;;;5116461;28;20546;-62
2023/09/25 05:35:26;;;;;;;1.70;1.60;;;18.80;66.30;;;;;;5115847;28;20172;-62
2023/09/25 05:37:52;;;;;;;1.60;1.50;;;18.80;66.30;;;;;;5116616;28;20229;-63
2023/09/25 05:40:18;;;;;;;1.67;1.58;;;18.80;66.30;;;;;;5116030;28;20314;-62
2023/09/25 05:42:45;;;;;;;3.28;1.85;;;18.80;66.20;;;;;;5115654;28;20176;-62
2023/09/25 05:45:11;;;;;;;2.35;1.90;;;18.80;66.30;;;;;;5115936;28;20169;-62
2023/09/25 05:47:37;;;;;;;2.53;1.67;;;18.80;66.20;;;;;;5116284;28;20260;-62
2023/09/25 05:50:03;;;;;;;3.00;1.77;;;18.80;66.30;;;;;;5115334;28;20252;-62
2023/09/25 05:52:28;;;;;;;1.92;1.48;;;18.80;66.20;;;;;;5116121;28;20177;-62
2023/09/25 05:54:54;;;;;;;1.50;1.40;;;18.80;66.20;;;;;;5116218;28;20165;-63
2023/09/25 05:57:20;;;;;;;1.65;1.48;;;18.80;66.20;;;;;;5114966;28;20687;-63
2023/09/25 05:59:45;;;;;;;2.55;1.38;;;18.70;66.20;;;;;;5116340;28;20169;-62
2023/09/25 06:02:11;;;;;;;1.95;1.70;;;18.80;66.20;;;;;;5115873;28;20177;-62
2023/09/25 06:04:37;;;;;;;2.38;1.33;;;18.80;66.20;;;;;;5115332;28;20169;-61
2023/09/25 06:07:03;;;;;;;1.70;1.52;;;18.80;66.20;;;;;;5115572;28;20220;-62
2023/09/25 06:09:29;;;;;;;1.58;1.48;;;18.80;66.30;;;;;;5115908;28;20180;-61
2023/09/25 06:11:55;;;;;;;1.98;1.77;;;18.80;66.20;;;;;;5115000;28;20180;-62
2023/09/25 06:14:21;;;;;;;1.50;1.40;;;18.80;66.10;;;;;;5115572;28;20256;-62
2023/09/25 06:16:48;;;;;;;1.55;1.45;;;18.80;66.20;;;;;;5115923;28;20230;-62
2023/09/25 06:19:14;;;;;;;1.98;1.70;;;18.70;66.20;;;;;;5114294;28;20181;-62
2023/09/25 06:21:40;;;;;;;1.55;1.45;;;18.80;66.20;;;;;;5115575;28;20255;-62
2023/09/25 06:24:09;;;;;;;2.50;1.48;;;18.80;66.20;;;;;;5115324;28;20650;-63
2023/09/25 06:26:39;;;;;;;2.20;1.40;;;18.80;66.20;;;;;;5114491;28;20269;-62
2023/09/25 06:29:06;;;;;;;1.85;1.33;;;18.80;66.10;;;;;;5115282;28;20597;-62
2023/09/25 06:31:31;;;;;;;1.77;1.67;;;18.80;66.20;;;;;;5115550;28;20256;-62
2023/09/25 06:33:57;;;;;;;1.83;1.40;;;18.80;66.90;;;;;;5114526;28;20205;-63
2023/09/25 06:36:22;;;;;;;2.00;1.50;;;18.80;66.10;;;;;;5115158;28;20177;-61
2023/09/25 06:38:48;;;;;;;1.70;1.60;;;18.90;66.10;;;;;;5114629;28;20575;-63
2023/09/25 06:41:13;;;;;;;1.65;1.40;;;18.80;66.00;;;;;;5114960;28;20202;-63
2023/09/25 06:43:39;;;;;;;1.38;1.27;;;18.80;65.90;;;;;;5115384;28;20643;-62
2023/09/25 06:46:04;;;;;;;1.52;1.42;;;18.80;65.90;;;;;;5113988;28;20236;-62
2023/09/25 06:48:32;;;;;;;1.92;1.52;;;18.90;66.00;;;;;;5115089;28;20209;-61
2023/09/25 06:50:58;;;;;;;2.58;1.40;;;18.90;66.10;;;;;;5114791;28;20246;-63
2023/09/25 06:53:23;;;;;;;1.45;1.33;;;18.90;66.00;;;;;;5114160;28;20647;-62
2023/09/25 06:55:49;;;;;;;1.65;1.40;;;18.90;66.10;;;;;;5114827;28;20263;-64
2023/09/25 06:58:14;;;;;;;1.95;1.70;;;18.90;66.10;;;;;;5114533;28;20197;-62
2023/09/25 07:00:40;;;;;;;3.28;1.70;;;18.90;66.00;;;;;;5114189;28;20176;-62
2023/09/25 07:03:06;;;;;;;2.08;1.30;;;18.90;65.90;;;;;;5114473;28;20195;-64
2023/09/25 07:05:31;;;;;;;2.63;1.50;;;18.90;66.00;;;;;;5114630;28;20212;-62
2023/09/25 07:07:59;;;;;;;3.17;1.67;;;19.00;66.00;;;;;;5113847;28;20176;-62
2023/09/25 07:10:24;;;;;;;3.95;1.50;;;19.00;66.00;;;;;;5114506;28;20245;-63
2023/09/25 07:12:50;;;;;;;5.50;1.70;;;19.10;65.90;;;;;;5114634;28;20173;-65
2023/09/25 07:15:16;;;;;;;4.80;1.95;;;19.10;66.00;;;;;;5113553;28;20190;-62
2023/09/25 07:17:41;;;;;;;3.65;1.85;;;19.10;66.00;;;;;;5114681;28;20169;-62
2023/09/25 07:20:07;;;;;;;4.68;2.22;;;19.10;66.00;;;;;;5114298;28;20662;-63
2023/09/25 07:22:33;;;;;;;2.65;1.67;;;19.10;66.00;;;;;;5113587;28;20201;-62
2023/09/25 07:24:59;;;;;;;3.78;1.80;;;19.10;66.20;;;;;;5114175;28;20181;-63
2023/09/25 07:27:27;;;;;;;6.70;1.48;;;19.10;66.20;;;;;;5114290;28;20205;-62
2023/09/25 07:29:53;;;;;;;2.72;1.70;;;19.00;66.20;;;;;;5112705;28;20581;-61
2023/09/25 07:32:18;;;;;;;2.88;1.90;;;19.10;66.30;;;;;;5114037;28;20177;-61
2023/09/25 07:34:45;;;;;;;4.15;1.85;;;19.10;66.20;;;;;;5114053;28;20626;-61
2023/09/25 07:37:12;;;;;;;4.80;2.03;;;19.00;66.00;;;;;;5113031;28;20185;-62
2023/09/25 07:39:40;;;;;;;5.18;1.80;;;19.10;66.20;;;;;;5114085;28;20172;-62
2023/09/25 07:42:10;;;;;;;3.30;1.98;;;19.10;66.30;;;;;;5113081;28;20638;-62
2023/09/25 07:44:35;;;;;;;3.92;2.05;;;19.10;66.30;;;;;;5113949;28;20181;-61
2023/09/25 07:47:06;;;;;;;2.47;1.50;;;19.10;66.30;;;;;;5113334;28;20239;-62
2023/09/25 07:49:32;;;;;;;2.53;1.60;;;19.10;66.20;;;;;;5113281;28;20177;-61
2023/09/25 07:52:00;;;;;;;1.67;1.35;;;19.10;67.10;;;;;;5113631;28;20632;-62
2023/09/25 07:54:26;;;;;;;3.25;1.88;;;19.10;66.10;;;;;;5113695;28;20632;-62
2023/09/25 07:56:51;;;;;;;4.20;1.60;;;19.20;66.20;;;;;;5112974;28;20264;-63
2023/09/25 07:59:17;;;;;;;1.60;1.50;;;19.20;66.00;;;;;;5113629;28;20208;-62
2023/09/25 08:01:42;;;;;;;1.90;1.60;;;19.20;65.90;;;;;;5113901;28;20406;-62
2023/09/25 08:04:08;;;;;;;2.88;1.60;;;19.10;65.80;;;;;;5112696;28;20252;-63
2023/09/25 08:06:34;;;;;;;2.65;1.67;;;19.20;65.90;;;;;;5113423;28;20291;-62
2023/09/25 08:08:59;;;;;;;2.10;1.52;;;19.30;65.90;;;;;;5113630;28;20252;-63
2023/09/25 08:11:25;;;;;;;2.53;1.40;;;19.30;65.90;;;;;;5112610;28;20177;-62
2023/09/25 08:13:53;;;;;;;2.97;1.80;;;19.30;65.80;;;;;;5113749;28;20173;-63
2023/09/25 08:16:19;;;;;;;4.43;1.80;;;19.40;65.80;;;;;;5113131;28;20185;-62
2023/09/25 08:18:45;;;;;;;2.58;1.70;;;19.40;65.70;;;;;;5112789;28;20599;-62
2023/09/25 08:21:10;;;;;;;2.03;1.60;;;19.40;65.70;;;;;;5113061;28;20176;-63
2023/09/25 08:23:36;;;;;;;2.10;1.30;;;19.30;65.70;;;;;;5113294;28;20592;-63
2023/09/25 08:26:05;;;;;;;1.98;1.48;;;19.40;65.70;;;;;;5112487;28;20255;-62
2023/09/25 08:28:34;;;;;;;1.92;1.45;;;19.40;65.70;;;;;;5113398;28;20591;-62
2023/09/25 08:30:59;;;;;;;1.48;1.30;;;19.50;65.70;;;;;;5113051;28;20267;-62
2023/09/25 08:33:25;;;;;;;2.30;1.88;;;19.50;65.70;;;;;;5112265;28;20201;-62
2023/09/25 08:35:51;;;;;;;3.63;1.70;;;19.50;65.70;;;;;;5113066;28;20255;-62
2023/09/25 08:38:17;;;;;;;2.22;1.27;;;19.50;65.50;;;;;;5112241;28;20176;-62
2023/09/25 08:40:51;;;;;;;1.85;1.60;;;19.60;65.60;;;;;;5113120;28;20530;-62
2023/09/25 08:43:18;;;;;;;2.22;1.55;;;19.50;65.60;;;;;;5112773;28;20217;-61
2023/09/25 08:45:44;;;;;;;2.60;1.50;;;19.50;65.50;;;;;;5112192;28;20249;-61
2023/09/25 08:48:12;;;;;;;2.38;1.98;;;19.60;65.60;;;;;;5077703;28;20169;-61
2023/09/25 08:50:39;;;;;;;1.70;1.52;;;19.60;65.70;;;;;;5113168;28;20177;-61
2023/09/25 08:53:05;;;;;;;1.27;1.17;;;19.60;65.70;;;;;;5093928;28;20639;-62
2023/09/25 08:55:31;;;;;;;1.85;1.42;;;19.60;65.60;;;;;;5113074;28;20312;-61
2023/09/25 08:57:57;;;;;;;1.60;1.50;;;19.60;65.70;;;;;;5095026;28;20225;-62
2023/09/25 09:00:24;;;;;;;2.38;1.45;;;19.70;65.70;;;;;;5093947;28;20180;-62
2023/09/25 09:02:49;;;;;;;1.52;1.40;;;19.70;65.60;;;;;;5112884;28;20643;-61
2023/09/25 09:05:16;;;;;;;2.60;1.42;;;19.70;65.50;;;;;;5112737;28;20180;-61
2023/09/25 09:08:01;;;;;;;1.83;1.40;;;19.70;65.50;;;;;;5112383;28;20237;-62
2023/09/25 09:10:31;;;;;;;2.25;1.40;;;19.70;65.50;;;;;;5112846;28;20181;-63
2023/09/25 09:12:56;;;;;;;1.60;1.42;;;19.80;65.60;;;;;;5112870;28;20201;-63
2023/09/25 09:15:26;;;;;;;2.45;1.55;;;19.80;65.60;;;;;;5111569;28;20200;-62
2023/09/25 09:17:53;;;;;;;2.65;1.60;;;19.80;65.50;;;;;;5113004;28;20207;-64
2023/09/25 09:20:19;;;;;;;2.78;1.52;;;19.80;65.50;;;;;;5112494;28;20184;-62
2023/09/25 09:22:51;;;;;;;1.80;1.40;;;19.80;65.50;;;;;;5093431;28;20177;-63
2023/09/25 09:25:21;;;;;;;1.90;1.40;;;19.80;65.50;;;;;;5112274;28;20185;-63
2023/09/25 09:27:46;;;;;;;1.85;1.42;;;19.90;65.40;;;;;;5093978;28;20179;-62
2023/09/25 09:30:23;;;;;;;1.38;1.27;;;19.90;65.40;;;;;;5112526;28;20165;-63
2023/09/25 09:32:50;;;;;;;1.70;1.52;;;19.90;65.40;;;;;;5112819;28;20173;-62
2023/09/25 09:35:19;;;;;;;2.00;1.58;;;19.90;65.30;;;;;;5111704;28;20806;-62
2023/09/25 09:37:44;;;;;;;3.33;1.52;;;19.90;65.30;;;;;;5112519;28;20165;-63
2023/09/25 09:40:11;;;;;;;2.08;1.27;;;19.90;65.30;;;;;;5094142;28;20179;-63
2023/09/25 09:42:38;;;;;;;1.73;1.30;;;20.00;65.30;;;;;;5093644;28;20173;-62
2023/09/25 09:45:08;;;;;;;3.08;1.35;;;20.00;65.20;;;;;;5077171;28;20216;-64
2023/09/25 09:47:39;;;;;;;1.48;1.10;;;20.10;65.20;;;;;;5112194;28;20223;-61
2023/09/25 09:50:05;;;;;;;2.65;1.60;;;20.10;65.20;;;;;;5076971;28;20252;-62
2023/09/25 09:52:31;;;;;;;3.30;1.30;;;20.10;65.10;;;;;;5094454;28;20203;-62
2023/09/25 09:54:56;;;;;;;2.20;1.50;;;20.10;65.10;;;;;;5115881;28;20165;-62
2023/09/25 09:57:22;;;;;;;3.22;1.50;;;20.10;65.80;;;;;;5097052;28;20172;-61
2023/09/25 09:59:48;;;;;;;1.63;1.10;;;20.20;65.00;;;;;;5097967;28;20256;-61
2023/09/25 10:02:15;;;;;;;1.70;1.60;;;20.20;65.00;;;;;;5115958;28;20170;-61
2023/09/25 10:04:40;;;;;;;5.97;1.67;;;20.20;65.00;;;;;;5080401;28;20262;-63
2023/09/25 10:07:08;;;;;;;4.20;1.60;;;20.20;65.00;;;;;;5097371;28;20232;-64
2023/09/25 10:09:34;;;;;;;3.50;1.73;;;20.20;65.00;;;;;;5081511;28;20173;-63
2023/09/25 10:11:59;;;;;;;5.10;1.70;;;20.30;65.00;;;;;;5115073;28;20188;-63
2023/09/25 10:14:25;;;;;;;2.95;1.50;;;20.30;64.90;;;;;;5080533;28;20169;-63
2023/09/25 10:16:52;;;;;;;1.80;1.42;;;20.30;65.00;;;;;;5115057;28;20538;-62
2023/09/25 10:19:21;;;;;;;2.85;1.40;;;20.20;64.90;;;;;;5115341;28;20242;-63
2023/09/25 10:22:12;;;;;;;1.45;1.30;;;20.30;65.00;;;;;;5115772;28;20173;-63
2023/09/25 10:24:38;;;;;;;1.55;1.45;;;20.20;64.80;;;;;;5114979;28;20177;-62
2023/09/25 10:27:03;;;;;;;1.83;1.30;;;20.20;64.90;;;;;;5115215;28;20238;-64
2023/09/25 10:29:29;;;;;;;2.63;1.50;;;20.20;64.90;;;;;;5115379;28;20177;-61
2023/09/25 10:31:55;;;;;;;2.65;1.45;;;20.20;64.90;;;;;;5114937;28;20173;-61
2023/09/25 10:34:25;;;;;;;2.10;1.55;;;20.30;64.90;;;;;;5115139;28;20169;-61
2023/09/25 10:36:52;;;;;;;2.30;1.50;;;20.20;64.80;;;;;;5115946;28;20258;-61
2023/09/25 10:39:18;;;;;;;1.83;1.50;;;20.20;64.70;;;;;;5114248;28;20704;-62
2023/09/25 10:41:46;;;;;;;1.63;1.30;;;20.30;64.80;;;;;;5115130;28;20181;-62
2023/09/25 10:44:12;;;;;;;2.03;1.38;;;20.30;64.70;;;;;;5115035;28;20264;-62
2023/09/25 10:46:40;;;;;;;2.92;1.48;;;20.30;64.70;;;;;;5114271;28;20319;-62
2023/09/25 10:49:08;;;;;;;3.17;1.60;;;20.30;64.70;;;;;;5114866;28;20253;-61
2023/09/25 10:51:35;;;;;;;2.10;1.30;;;20.30;64.70;;;;;;5115248;28;20227;-62
2023/09/25 10:54:01;;;;;;;1.70;1.40;;;20.30;64.70;;;;;;5114004;28;20180;-62
2023/09/25 10:56:27;;;;;;;2.38;1.40;;;20.30;64.70;;;;;;5115221;28;20266;-62
2023/09/25 10:58:52;;;;;;;2.00;1.50;;;20.30;64.70;;;;;;5115131;28;20165;-60
2023/09/25 11:01:27;;;;;;;1.65;1.42;;;20.30;64.70;;;;;;5113849;28;20169;-62
2023/09/25 11:03:53;;;;;;;2.25;1.50;;;20.30;64.60;;;;;;5115051;28;20218;-63
2023/09/25 11:06:19;;;;;;;2.35;1.30;;;20.30;64.60;;;;;;5113750;28;20514;-62
2023/09/25 11:08:44;;;;;;;3.10;1.75;;;20.30;64.60;;;;;;5114870;28;20177;-62
2023/09/25 11:11:13;;;;;;;2.10;1.30;;;20.40;64.70;;;;;;5114405;28;20181;-63
2023/09/25 11:13:39;;;;;;;2.83;1.20;;;20.30;64.60;;;;;;5096267;28;20177;-62
2023/09/25 11:16:06;;;;;;;1.30;1.17;;;20.40;64.60;;;;;;5114278;28;20600;-63
2023/09/25 11:18:31;;;;;;;1.95;1.40;;;20.40;65.40;;;;;;5096702;28;20177;-62
2023/09/25 11:20:57;;;;;;;2.33;1.48;;;20.40;64.50;;;;;;5113922;28;20643;-63
2023/09/25 11:23:24;;;;;;;2.22;1.52;;;20.30;64.60;;;;;;5114440;28;20169;-63
2023/09/25 11:25:51;;;;;;;1.45;1.20;;;20.30;64.60;;;;;;5079423;28;20215;-62
2023/09/25 11:28:20;;;;;;;3.22;1.40;;;20.40;64.70;;;;;;5113073;28;20183;-63
2023/09/25 11:30:47;;;;;;;2.30;1.65;;;20.40;64.60;;;;;;5114328;28;20256;-62
2023/09/25 11:33:15;;;;;;;1.92;1.40;;;20.40;64.50;;;;;;5113949;28;20176;-62
2023/09/25 11:35:40;;;;;;;1.75;1.55;;;20.40;64.50;;;;;;5113681;28;20213;-62
2023/09/25 11:38:09;;;;;;;1.52;1.42;;;20.30;64.40;;;;;;5113812;28;20196;-63
2023/09/25 11:40:35;;;;;;;1.52;1.33;;;20.50;64.40;;;;;;5114170;28;20177;-63
2023/09/25 11:43:01;;;;;;;1.20;1.10;;;20.40;64.40;;;;;;5112936;28;20177;-62
2023/09/25 11:45:26;;;;;;;1.58;1.25;;;20.50;64.40;;;;;;5113912;28;20221;-62
2023/09/25 11:47:52;;;;;;;2.20;1.48;;;20.50;64.30;;;;;;5095974;28;20184;-61
2023/09/25 11:50:18;;;;;;;1.73;1.58;;;20.50;64.30;;;;;;5112817;28;20205;-61
2023/09/25 11:52:44;;;;;;;2.70;1.27;;;20.50;64.30;;;;;;5114026;28;20196;-61
2023/09/25 11:55:11;;;;;;;2.83;1.40;;;20.50;64.30;;;;;;5113230;28;20650;-62
2023/09/25 11:57:38;;;;;;;3.70;1.77;;;20.50;64.30;;;;;;5113202;28;20188;-62
2023/09/25 12:00:05;;;;;;;4.95;1.48;;;20.60;64.30;;;;;;5095332;28;20620;-63
2023/09/25 12:02:31;;;;;;;4.10;1.50;;;20.60;64.20;;;;;;5113180;28;20237;-62
2023/09/25 12:04:58;;;;;;;3.85;1.50;;;20.70;64.30;;;;;;5113853;28;20234;-62
2023/09/25 12:07:25;;;;;;;4.55;1.95;;;20.60;64.30;;;;;;5112657;28;20403;-65
2023/09/25 12:09:51;;;;;;;8.15;2.63;;;20.60;64.40;;;;;;5112948;28;20173;-61
2023/09/25 12:12:17;;;;;;;6.95;2.55;;;20.60;64.60;;;;;;5113070;28;20187;-61
2023/09/25 12:14:42;;;;;;;9.68;2.85;;;20.50;64.70;;;;;;5113529;28;20169;-62
2023/09/25 12:17:08;;;;;;;8.90;3.42;;;20.60;64.80;;;;;;5112070;28;20291;-62
2023/09/25 12:19:34;;;;;;;7.45;3.00;;;20.60;64.80;;;;;;5113346;28;20185;-62
2023/09/25 12:21:59;;;;;;;5.68;3.17;;;20.60;64.80;;;;;;5112988;28;20188;-63
2023/09/25 12:24:25;;;;;;;9.77;2.97;;;20.70;64.80;;;;;;5112344;28;20169;-63
2023/09/25 12:26:50;;;;;;;6.65;3.00;;;20.70;64.70;;;;;;5113174;28;20229;-63
2023/09/25 12:29:17;;;;;;;5.47;2.63;;;20.60;64.80;;;;;;5112803;28;20203;-66
2023/09/25 12:31:43;;;;;;;5.72;3.00;;;20.60;65.00;;;;;;5112686;28;20187;-63
2023/09/25 12:34:08;;;;;;;5.85;2.80;;;20.60;65.00;;;;;;5112930;28;20252;-64
2023/09/25 12:36:34;;;;;;;7.43;3.30;;;20.60;65.10;;;;;;5113159;28;20259;-62
2023/09/25 12:38:59;;;;;;;10.13;3.33;;;20.70;65.00;;;;;;5111761;28;20595;-63
2023/09/25 12:41:25;;;;;;;6.20;3.03;;;20.70;64.80;;;;;;5112915;28;20179;-62
2023/09/25 12:43:53;;;;;;;7.72;2.92;;;20.70;64.60;;;;;;5113375;28;20285;-62